sensor_id;sensor_type;location;lat;lon;timestamp;temperature;humidity
35495;DHT22;21608;49.300;6.846;2022-08-25T00:01:33;25.30;47.50
35495;DHT22;21608;49.300;6.846;2022-08-25T00:04:35;25.30;47.50
35495;DHT22;21608;49.300;6.846;2022-08-25T00:07:37;25.30;47.60
35495;DHT22;21608;49.300;6.846;2022-08-25T00:10:39;25.20;47.60
35495;DHT22;21608;49.300;6.846;2022-08-25T00:13:45;25.20;47.60
35495;DHT22;21608;49.300;6.846;2022-08-25T00:16:47;25.20;47.50
35495;DHT22;21608;49.300;6.846;2022-08-25T00:19:49;25.20;47.50
35495;DHT22;21608;49.300;6.846;2022-08-25T00:22:51;25.20;47.20
35495;DHT22;21608;49.300;6.846;2022-08-25T00:25:53;25.20;47.00
35495;DHT22;21608;49.300;6.846;2022-08-25T00:28:55;25.30;46.80
35495;DHT22;21608;49.300;6.846;2022-08-25T00:32:05;25.30;46.60
35495;DHT22;21608;49.300;6.846;2022-08-25T00:35:07;25.20;46.40
35495;DHT22;21608;49.300;6.846;2022-08-25T00:38:10;25.20;46.30
35495;DHT22;21608;49.300;6.846;2022-08-25T00:41:20;25.20;46.20
35495;DHT22;21608;49.300;6.846;2022-08-25T00:44:23;25.20;46.10
35495;DHT22;21608;49.300;6.846;2022-08-25T00:47:25;25.20;46.00
35495;DHT22;21608;49.300;6.846;2022-08-25T00:50:32;25.20;45.80
35495;DHT22;21608;49.300;6.846;2022-08-25T00:53:35;25.20;45.70
35495;DHT22;21608;49.300;6.846;2022-08-25T00:56:38;25.20;45.60
35495;DHT22;21608;49.300;6.846;2022-08-25T00:59:40;25.20;45.60
35495;DHT22;21608;49.300;6.846;2022-08-25T01:02:43;25.20;45.50
35495;DHT22;21608;49.300;6.846;2022-08-25T01:05:45;25.20;45.50
35495;DHT22;21608;49.300;6.846;2022-08-25T01:08:47;25.20;45.40
35495;DHT22;21608;49.300;6.846;2022-08-25T01:11:49;25.20;45.20
35495;DHT22;21608;49.300;6.846;2022-08-25T01:14:52;25.20;45.30
35495;DHT22;21608;49.300;6.846;2022-08-25T01:17:55;25.20;45.10
35495;DHT22;21608;49.300;6.846;2022-08-25T01:21:00;25.10;45.00
35495;DHT22;21608;49.300;6.846;2022-08-25T01:24:02;25.10;44.90
35495;DHT22;21608;49.300;6.846;2022-08-25T01:27:04;25.10;44.90
35495;DHT22;21608;49.300;6.846;2022-08-25T01:30:07;25.10;44.90
35495;DHT22;21608;49.300;6.846;2022-08-25T01:33:10;25.10;44.70
35495;DHT22;21608;49.300;6.846;2022-08-25T01:36:17;25.10;44.60
35495;DHT22;21608;49.300;6.846;2022-08-25T01:39:19;25.10;44.60
35495;DHT22;21608;49.300;6.846;2022-08-25T01:42:32;25.10;44.60
35495;DHT22;21608;49.300;6.846;2022-08-25T01:45:35;25.10;44.50
35495;DHT22;21608;49.300;6.846;2022-08-25T01:48:37;25.10;44.50
35495;DHT22;21608;49.300;6.846;2022-08-25T01:51:46;25.10;44.30
35495;DHT22;21608;49.300;6.846;2022-08-25T01:54:49;25.10;44.30
35495;DHT22;21608;49.300;6.846;2022-08-25T01:57:50;25.10;44.80
35495;DHT22;21608;49.300;6.846;2022-08-25T02:00:54;25.10;44.30
35495;DHT22;21608;49.300;6.846;2022-08-25T02:03:57;25.10;44.20
35495;DHT22;21608;49.300;6.846;2022-08-25T02:07:02;25.10;44.30
35495;DHT22;21608;49.300;6.846;2022-08-25T02:10:06;25.00;44.20
35495;DHT22;21608;49.300;6.846;2022-08-25T02:13:08;25.00;44.10
35495;DHT22;21608;49.300;6.846;2022-08-25T02:16:15;25.00;44.20
35495;DHT22;21608;49.300;6.846;2022-08-25T02:19:20;25.00;44.10
35495;DHT22;21608;49.300;6.846;2022-08-25T02:22:22;25.00;44.10
35495;DHT22;21608;49.300;6.846;2022-08-25T02:25:24;25.10;44.10
35495;DHT22;21608;49.300;6.846;2022-08-25T02:28:26;25.00;44.10
35495;DHT22;21608;49.300;6.846;2022-08-25T02:31:28;25.00;44.00
35495;DHT22;21608;49.300;6.846;2022-08-25T02:34:30;25.00;44.00
35495;DHT22;21608;49.300;6.846;2022-08-25T02:37:32;25.00;44.00
35495;DHT22;21608;49.300;6.846;2022-08-25T02:40:34;25.00;44.00
35495;DHT22;21608;49.300;6.846;2022-08-25T02:43:37;25.00;44.00
35495;DHT22;21608;49.300;6.846;2022-08-25T02:46:39;25.00;44.00
35495;DHT22;21608;49.300;6.846;2022-08-25T02:49:41;25.00;43.90
35495;DHT22;21608;49.300;6.846;2022-08-25T02:52:43;25.00;43.90
35495;DHT22;21608;49.300;6.846;2022-08-25T02:55:46;25.00;43.80
35495;DHT22;21608;49.300;6.846;2022-08-25T02:58:48;25.00;43.80
35495;DHT22;21608;49.300;6.846;2022-08-25T03:01:50;25.00;43.80
35495;DHT22;21608;49.300;6.846;2022-08-25T03:04:53;25.00;43.80
35495;DHT22;21608;49.300;6.846;2022-08-25T03:07:55;25.00;43.80
35495;DHT22;21608;49.300;6.846;2022-08-25T03:10:58;24.90;43.80
35495;DHT22;21608;49.300;6.846;2022-08-25T03:14:00;25.00;43.80
35495;DHT22;21608;49.300;6.846;2022-08-25T03:17:02;24.90;43.70
35495;DHT22;21608;49.300;6.846;2022-08-25T03:20:09;24.90;43.70
35495;DHT22;21608;49.300;6.846;2022-08-25T03:23:11;25.00;43.80
35495;DHT22;21608;49.300;6.846;2022-08-25T03:26:13;24.90;43.70
35495;DHT22;21608;49.300;6.846;2022-08-25T03:29:34;25.00;43.80
35495;DHT22;21608;49.300;6.846;2022-08-25T03:32:36;24.90;43.70
35495;DHT22;21608;49.300;6.846;2022-08-25T03:35:39;24.90;43.80
35495;DHT22;21608;49.300;6.846;2022-08-25T03:38:41;24.90;43.70
35495;DHT22;21608;49.300;6.846;2022-08-25T03:41:43;24.90;43.70
35495;DHT22;21608;49.300;6.846;2022-08-25T03:44:45;24.90;43.70
35495;DHT22;21608;49.300;6.846;2022-08-25T03:47:48;24.90;43.70
35495;DHT22;21608;49.300;6.846;2022-08-25T03:50:50;24.90;43.70
35495;DHT22;21608;49.300;6.846;2022-08-25T03:53:53;24.90;43.60
35495;DHT22;21608;49.300;6.846;2022-08-25T03:56:55;24.90;43.60
35495;DHT22;21608;49.300;6.846;2022-08-25T03:59:57;24.90;43.70
35495;DHT22;21608;49.300;6.846;2022-08-25T04:02:59;24.90;43.60
35495;DHT22;21608;49.300;6.846;2022-08-25T04:06:03;24.90;43.60
35495;DHT22;21608;49.300;6.846;2022-08-25T04:09:06;24.90;43.60
35495;DHT22;21608;49.300;6.846;2022-08-25T04:12:08;24.90;43.60
35495;DHT22;21608;49.300;6.846;2022-08-25T04:15:10;24.90;43.60
35495;DHT22;21608;49.300;6.846;2022-08-25T04:18:12;24.90;43.50
35495;DHT22;21608;49.300;6.846;2022-08-25T04:21:15;24.90;44.20
35495;DHT22;21608;49.300;6.846;2022-08-25T04:24:17;24.90;43.50
35495;DHT22;21608;49.300;6.846;2022-08-25T04:27:19;24.90;43.50
35495;DHT22;21608;49.300;6.846;2022-08-25T04:30:21;24.90;43.50
35495;DHT22;21608;49.300;6.846;2022-08-25T04:33:23;24.90;43.50
35495;DHT22;21608;49.300;6.846;2022-08-25T04:36:25;24.80;43.40
35495;DHT22;21608;49.300;6.846;2022-08-25T04:39:27;24.90;43.50
35495;DHT22;21608;49.300;6.846;2022-08-25T04:42:29;24.90;43.50
35495;DHT22;21608;49.300;6.846;2022-08-25T04:45:36;24.90;43.40
35495;DHT22;21608;49.300;6.846;2022-08-25T04:48:39;24.90;43.40
35495;DHT22;21608;49.300;6.846;2022-08-25T04:51:42;24.80;43.40
35495;DHT22;21608;49.300;6.846;2022-08-25T04:54:44;24.80;43.40
35495;DHT22;21608;49.300;6.846;2022-08-25T04:57:45;24.90;43.40
35495;DHT22;21608;49.300;6.846;2022-08-25T05:00:47;24.80;43.30
35495;DHT22;21608;49.300;6.846;2022-08-25T05:03:55;24.80;43.40
35495;DHT22;21608;49.300;6.846;2022-08-25T05:06:57;24.80;43.40
35495;DHT22;21608;49.300;6.846;2022-08-25T05:09:59;24.80;43.40
35495;DHT22;21608;49.300;6.846;2022-08-25T05:13:02;24.80;43.30
35495;DHT22;21608;49.300;6.846;2022-08-25T05:16:04;24.80;43.30
35495;DHT22;21608;49.300;6.846;2022-08-25T05:19:10;24.80;43.80
35495;DHT22;21608;49.300;6.846;2022-08-25T05:22:12;24.80;43.30
35495;DHT22;21608;49.300;6.846;2022-08-25T05:25:14;24.80;43.30
35495;DHT22;21608;49.300;6.846;2022-08-25T05:28:16;24.80;43.30
35495;DHT22;21608;49.300;6.846;2022-08-25T05:31:19;24.80;43.40
35495;DHT22;21608;49.300;6.846;2022-08-25T05:34:21;24.80;43.30
35495;DHT22;21608;49.300;6.846;2022-08-25T05:37:23;24.80;43.40
35495;DHT22;21608;49.300;6.846;2022-08-25T05:40:25;24.80;43.40
35495;DHT22;21608;49.300;6.846;2022-08-25T05:43:27;24.80;43.30
35495;DHT22;21608;49.300;6.846;2022-08-25T05:46:29;24.90;43.30
35495;DHT22;21608;49.300;6.846;2022-08-25T05:49:32;24.90;43.90
35495;DHT22;21608;49.300;6.846;2022-08-25T05:52:34;24.90;43.30
35495;DHT22;21608;49.300;6.846;2022-08-25T05:55:36;24.90;43.30
35495;DHT22;21608;49.300;6.846;2022-08-25T05:58:39;25.00;43.30
35495;DHT22;21608;49.300;6.846;2022-08-25T06:01:40;25.00;43.20
35495;DHT22;21608;49.300;6.846;2022-08-25T06:05:01;25.00;43.20
35495;DHT22;21608;49.300;6.846;2022-08-25T06:08:03;25.00;43.10
35495;DHT22;21608;49.300;6.846;2022-08-25T06:11:06;25.10;43.20
35495;DHT22;21608;49.300;6.846;2022-08-25T06:14:09;25.20;43.20
35495;DHT22;21608;49.300;6.846;2022-08-25T06:17:11;25.20;43.20
35495;DHT22;21608;49.300;6.846;2022-08-25T06:20:25;25.30;43.20
35495;DHT22;21608;49.300;6.846;2022-08-25T06:23:27;25.20;43.20
35495;DHT22;21608;49.300;6.846;2022-08-25T06:26:29;25.20;43.30
35495;DHT22;21608;49.300;6.846;2022-08-25T06:29:31;25.20;43.50
35495;DHT22;21608;49.300;6.846;2022-08-25T06:32:36;25.20;43.60
35495;DHT22;21608;49.300;6.846;2022-08-25T06:35:41;25.20;43.80
35495;DHT22;21608;49.300;6.846;2022-08-25T06:38:43;25.20;44.00
35495;DHT22;21608;49.300;6.846;2022-08-25T06:41:50;25.20;44.10
35495;DHT22;21608;49.300;6.846;2022-08-25T06:44:52;25.20;44.20
35495;DHT22;21608;49.300;6.846;2022-08-25T06:47:56;25.10;44.10
35495;DHT22;21608;49.300;6.846;2022-08-25T06:50:58;25.20;44.20
35495;DHT22;21608;49.300;6.846;2022-08-25T06:54:00;25.20;44.30
35495;DHT22;21608;49.300;6.846;2022-08-25T06:57:03;25.10;44.30
35495;DHT22;21608;49.300;6.846;2022-08-25T07:00:06;25.10;44.40
35495;DHT22;21608;49.300;6.846;2022-08-25T07:03:09;25.10;44.60
35495;DHT22;21608;49.300;6.846;2022-08-25T07:06:12;25.10;44.80
35495;DHT22;21608;49.300;6.846;2022-08-25T07:09:14;25.10;45.00
35495;DHT22;21608;49.300;6.846;2022-08-25T07:12:15;25.10;45.00
35495;DHT22;21608;49.300;6.846;2022-08-25T07:15:18;25.10;45.00
35495;DHT22;21608;49.300;6.846;2022-08-25T07:18:21;25.20;44.90
35495;DHT22;21608;49.300;6.846;2022-08-25T07:21:23;25.20;45.00
35495;DHT22;21608;49.300;6.846;2022-08-25T07:24:33;25.20;45.10
35495;DHT22;21608;49.300;6.846;2022-08-25T07:27:35;25.20;45.10
35495;DHT22;21608;49.300;6.846;2022-08-25T07:30:37;25.20;45.80
35495;DHT22;21608;49.300;6.846;2022-08-25T07:33:38;25.20;45.10
35495;DHT22;21608;49.300;6.846;2022-08-25T07:37:01;25.20;45.20
35495;DHT22;21608;49.300;6.846;2022-08-25T07:40:06;25.20;45.20
35495;DHT22;21608;49.300;6.846;2022-08-25T07:43:09;25.20;45.20
35495;DHT22;21608;49.300;6.846;2022-08-25T07:46:11;25.20;45.30
35495;DHT22;21608;49.300;6.846;2022-08-25T07:49:13;25.20;45.40
35495;DHT22;21608;49.300;6.846;2022-08-25T07:52:17;25.20;45.40
35495;DHT22;21608;49.300;6.846;2022-08-25T07:55:20;25.20;45.40
35495;DHT22;21608;49.300;6.846;2022-08-25T07:58:22;25.20;45.40
35495;DHT22;21608;49.300;6.846;2022-08-25T08:01:25;25.20;45.50
35495;DHT22;21608;49.300;6.846;2022-08-25T08:04:27;25.20;45.50
35495;DHT22;21608;49.300;6.846;2022-08-25T08:07:29;25.20;45.60
35495;DHT22;21608;49.300;6.846;2022-08-25T08:10:44;25.20;45.60
35495;DHT22;21608;49.300;6.846;2022-08-25T08:14:06;25.20;45.60
35495;DHT22;21608;49.300;6.846;2022-08-25T08:17:09;25.20;45.70
35495;DHT22;21608;49.300;6.846;2022-08-25T08:20:12;25.20;45.80
35495;DHT22;21608;49.300;6.846;2022-08-25T08:23:16;25.20;45.90
35495;DHT22;21608;49.300;6.846;2022-08-25T08:26:18;25.20;45.80
35495;DHT22;21608;49.300;6.846;2022-08-25T08:29:21;25.20;45.90
35495;DHT22;21608;49.300;6.846;2022-08-25T08:32:23;25.20;45.90
35495;DHT22;21608;49.300;6.846;2022-08-25T08:35:41;25.20;46.00
35495;DHT22;21608;49.300;6.846;2022-08-25T08:38:44;25.20;46.00
35495;DHT22;21608;49.300;6.846;2022-08-25T08:45:34;25.20;46.20
35495;DHT22;21608;49.300;6.846;2022-08-25T08:49:04;25.20;46.20
35495;DHT22;21608;49.300;6.846;2022-08-25T08:52:07;25.30;46.30
35495;DHT22;21608;49.300;6.846;2022-08-25T08:58:31;25.20;46.40
35495;DHT22;21608;49.300;6.846;2022-08-25T09:01:52;25.30;46.40
35495;DHT22;21608;49.300;6.846;2022-08-25T09:05:05;25.30;46.40
35495;DHT22;21608;49.300;6.846;2022-08-25T09:08:11;25.30;46.40
35495;DHT22;21608;49.300;6.846;2022-08-25T09:14:30;25.30;46.50
35495;DHT22;21608;49.300;6.846;2022-08-25T09:33:54;25.30;46.60
35495;DHT22;21608;49.300;6.846;2022-08-25T09:36:56;25.30;46.70
35495;DHT22;21608;49.300;6.846;2022-08-25T09:39:58;25.30;46.70
35495;DHT22;21608;49.300;6.846;2022-08-25T09:43:02;25.30;46.80
35495;DHT22;21608;49.300;6.846;2022-08-25T09:46:23;25.30;46.80
35495;DHT22;21608;49.300;6.846;2022-08-25T09:49:43;25.30;46.80
35495;DHT22;21608;49.300;6.846;2022-08-25T09:52:45;25.30;46.80
35495;DHT22;21608;49.300;6.846;2022-08-25T09:56:03;25.30;46.90
35495;DHT22;21608;49.300;6.846;2022-08-25T09:59:34;25.30;46.90
35495;DHT22;21608;49.300;6.846;2022-08-25T10:02:36;25.30;47.10
35495;DHT22;21608;49.300;6.846;2022-08-25T10:09:05;25.30;47.10
35495;DHT22;21608;49.300;6.846;2022-08-25T10:12:17;25.30;47.10
35495;DHT22;21608;49.300;6.846;2022-08-25T10:15:33;25.30;47.20
35495;DHT22;21608;49.300;6.846;2022-08-25T10:18:35;25.30;47.10
35495;DHT22;21608;49.300;6.846;2022-08-25T10:21:40;25.30;47.00
35495;DHT22;21608;49.300;6.846;2022-08-25T10:24:43;25.30;47.20
35495;DHT22;21608;49.300;6.846;2022-08-25T10:31:47;25.30;47.40
35495;DHT22;21608;49.300;6.846;2022-08-25T10:34:54;25.30;47.60
35495;DHT22;21608;49.300;6.846;2022-08-25T10:46:01;25.30;47.90
35495;DHT22;21608;49.300;6.846;2022-08-25T10:48:58;25.30;47.90
35495;DHT22;21608;49.300;6.846;2022-08-25T10:52:46;25.30;48.00
35495;DHT22;21608;49.300;6.846;2022-08-25T10:56:05;25.30;47.90
35495;DHT22;21608;49.300;6.846;2022-08-25T11:05:50;25.30;47.90
35495;DHT22;21608;49.300;6.846;2022-08-25T11:08:58;25.30;47.90
35495;DHT22;21608;49.300;6.846;2022-08-25T11:12:07;25.30;47.90
35495;DHT22;21608;49.300;6.846;2022-08-25T11:15:16;25.30;47.80
35495;DHT22;21608;49.300;6.846;2022-08-25T11:18:21;25.30;47.80
35495;DHT22;21608;49.300;6.846;2022-08-25T11:25:22;25.40;47.80
35495;DHT22;21608;49.300;6.846;2022-08-25T11:31:52;25.40;48.00
35495;DHT22;21608;49.300;6.846;2022-08-25T11:34:54;25.40;47.60
35495;DHT22;21608;49.300;6.846;2022-08-25T11:51:42;25.40;47.70
35495;DHT22;21608;49.300;6.846;2022-08-25T11:54:45;25.40;47.60
35495;DHT22;21608;49.300;6.846;2022-08-25T11:57:51;25.40;47.70
35495;DHT22;21608;49.300;6.846;2022-08-25T12:00:56;25.40;47.70
35495;DHT22;21608;49.300;6.846;2022-08-25T12:11:09;25.40;48.30
35495;DHT22;21608;49.300;6.846;2022-08-25T12:14:35;25.40;47.80
35495;DHT22;21608;49.300;6.846;2022-08-25T12:17:38;25.40;47.60
35495;DHT22;21608;49.300;6.846;2022-08-25T12:24:10;25.40;47.50
35495;DHT22;21608;49.300;6.846;2022-08-25T12:27:32;25.40;47.60
35495;DHT22;21608;49.300;6.846;2022-08-25T12:30:47;25.40;47.70
35495;DHT22;21608;49.300;6.846;2022-08-25T12:37:03;25.40;47.80
35495;DHT22;21608;49.300;6.846;2022-08-25T12:40:22;25.40;47.60
35495;DHT22;21608;49.300;6.846;2022-08-25T12:43:39;25.40;47.70
35495;DHT22;21608;49.300;6.846;2022-08-25T12:46:43;25.40;47.60
35495;DHT22;21608;49.300;6.846;2022-08-25T12:49:49;25.40;47.70
35495;DHT22;21608;49.300;6.846;2022-08-25T12:52:53;25.50;47.60
35495;DHT22;21608;49.300;6.846;2022-08-25T12:56:02;25.50;47.70
35495;DHT22;21608;49.300;6.846;2022-08-25T12:59:08;25.40;47.60
35495;DHT22;21608;49.300;6.846;2022-08-25T13:15:26;25.40;47.60
35495;DHT22;21608;49.300;6.846;2022-08-25T13:18:31;25.50;47.70
35495;DHT22;21608;49.300;6.846;2022-08-25T13:21:39;25.40;47.70
35495;DHT22;21608;49.300;6.846;2022-08-25T13:24:42;25.40;47.60
35495;DHT22;21608;49.300;6.846;2022-08-25T13:27:50;25.40;47.70
35495;DHT22;21608;49.300;6.846;2022-08-25T13:31:15;25.40;47.70
35495;DHT22;21608;49.300;6.846;2022-08-25T13:34:22;25.40;47.70
35495;DHT22;21608;49.300;6.846;2022-08-25T13:37:35;25.40;47.70
35495;DHT22;21608;49.300;6.846;2022-08-25T13:40:37;25.40;47.70
35495;DHT22;21608;49.300;6.846;2022-08-25T13:43:39;25.40;47.60
35495;DHT22;21608;49.300;6.846;2022-08-25T13:46:42;25.40;47.60
35495;DHT22;21608;49.300;6.846;2022-08-25T13:49:46;25.40;47.60
35495;DHT22;21608;49.300;6.846;2022-08-25T13:53:23;25.40;47.60
35495;DHT22;21608;49.300;6.846;2022-08-25T13:56:38;25.40;47.70
35495;DHT22;21608;49.300;6.846;2022-08-25T13:59:43;25.40;47.60
35495;DHT22;21608;49.300;6.846;2022-08-25T14:02:51;25.40;47.70
35495;DHT22;21608;49.300;6.846;2022-08-25T14:09:17;25.50;47.90
35495;DHT22;21608;49.300;6.846;2022-08-25T14:15:43;25.50;47.90
35495;DHT22;21608;49.300;6.846;2022-08-25T14:18:50;25.40;47.80
35495;DHT22;21608;49.300;6.846;2022-08-25T14:21:53;25.50;47.90
35495;DHT22;21608;49.300;6.846;2022-08-25T14:24:57;25.50;47.90
35495;DHT22;21608;49.300;6.846;2022-08-25T14:28:03;25.40;47.80
35495;DHT22;21608;49.300;6.846;2022-08-25T14:31:13;25.50;47.90
35495;DHT22;21608;49.300;6.846;2022-08-25T14:34:18;25.50;47.80
35495;DHT22;21608;49.300;6.846;2022-08-25T14:37:22;25.40;47.80
35495;DHT22;21608;49.300;6.846;2022-08-25T14:40:26;25.40;47.80
35495;DHT22;21608;49.300;6.846;2022-08-25T14:43:34;25.50;47.80
35495;DHT22;21608;49.300;6.846;2022-08-25T14:46:50;25.50;47.80
35495;DHT22;21608;49.300;6.846;2022-08-25T14:49:53;25.40;47.70
35495;DHT22;21608;49.300;6.846;2022-08-25T14:52:55;25.50;47.80
35495;DHT22;21608;49.300;6.846;2022-08-25T14:56:00;25.40;47.80
35495;DHT22;21608;49.300;6.846;2022-08-25T14:59:10;25.50;47.80
35495;DHT22;21608;49.300;6.846;2022-08-25T15:02:14;25.50;47.90
35495;DHT22;21608;49.300;6.846;2022-08-25T15:05:23;25.50;48.00
35495;DHT22;21608;49.300;6.846;2022-08-25T15:08:29;25.40;47.80
35495;DHT22;21608;49.300;6.846;2022-08-25T15:11:52;25.50;47.80
35495;DHT22;21608;49.300;6.846;2022-08-25T15:14:55;25.50;47.90
35495;DHT22;21608;49.300;6.846;2022-08-25T15:17:58;25.50;47.80
35495;DHT22;21608;49.300;6.846;2022-08-25T15:21:02;25.50;47.80
35495;DHT22;21608;49.300;6.846;2022-08-25T15:24:04;25.50;47.80
35495;DHT22;21608;49.300;6.846;2022-08-25T15:27:07;25.50;47.80
35495;DHT22;21608;49.300;6.846;2022-08-25T15:30:11;25.50;47.80
35495;DHT22;21608;49.300;6.846;2022-08-25T15:33:13;25.50;47.90
35495;DHT22;21608;49.300;6.846;2022-08-25T15:36:18;25.50;47.70
35495;DHT22;21608;49.300;6.846;2022-08-25T15:39:26;25.50;47.70
35495;DHT22;21608;49.300;6.846;2022-08-25T15:42:28;25.50;47.60
35495;DHT22;21608;49.300;6.846;2022-08-25T15:45:30;25.50;47.80
35495;DHT22;21608;49.300;6.846;2022-08-25T15:48:33;25.50;47.90
35495;DHT22;21608;49.300;6.846;2022-08-25T15:51:36;25.50;47.80
35495;DHT22;21608;49.300;6.846;2022-08-25T15:54:38;25.50;47.90
35495;DHT22;21608;49.300;6.846;2022-08-25T15:57:41;25.50;47.90
35495;DHT22;21608;49.300;6.846;2022-08-25T16:00:44;25.50;47.90
35495;DHT22;21608;49.300;6.846;2022-08-25T16:03:57;25.50;47.90
35495;DHT22;21608;49.300;6.846;2022-08-25T16:06:59;25.50;48.00
35495;DHT22;21608;49.300;6.846;2022-08-25T16:10:02;25.50;47.90
35495;DHT22;21608;49.300;6.846;2022-08-25T16:13:05;25.50;47.90
35495;DHT22;21608;49.300;6.846;2022-08-25T16:16:09;25.50;48.00
35495;DHT22;21608;49.300;6.846;2022-08-25T16:19:11;25.50;48.00
35495;DHT22;21608;49.300;6.846;2022-08-25T16:22:15;25.50;47.90
35495;DHT22;21608;49.300;6.846;2022-08-25T16:25:17;25.50;47.90
35495;DHT22;21608;49.300;6.846;2022-08-25T16:28:20;25.50;48.10
35495;DHT22;21608;49.300;6.846;2022-08-25T16:31:25;25.50;48.00
35495;DHT22;21608;49.300;6.846;2022-08-25T16:34:27;25.50;47.90
35495;DHT22;21608;49.300;6.846;2022-08-25T16:37:34;25.50;47.90
35495;DHT22;21608;49.300;6.846;2022-08-25T16:40:38;25.50;47.90
35495;DHT22;21608;49.300;6.846;2022-08-25T16:43:42;25.50;48.00
35495;DHT22;21608;49.300;6.846;2022-08-25T16:46:44;25.50;48.00
35495;DHT22;21608;49.300;6.846;2022-08-25T16:49:47;25.50;48.00
35495;DHT22;21608;49.300;6.846;2022-08-25T16:52:49;25.50;48.00
35495;DHT22;21608;49.300;6.846;2022-08-25T16:56:10;25.50;47.90
35495;DHT22;21608;49.300;6.846;2022-08-25T16:59:12;25.50;47.90
35495;DHT22;21608;49.300;6.846;2022-08-25T17:02:15;25.50;47.90
35495;DHT22;21608;49.300;6.846;2022-08-25T17:05:19;25.50;47.80
35495;DHT22;21608;49.300;6.846;2022-08-25T17:08:21;25.60;47.90
35495;DHT22;21608;49.300;6.846;2022-08-25T17:11:33;25.60;47.90
35495;DHT22;21608;49.300;6.846;2022-08-25T17:14:41;25.60;47.80
35495;DHT22;21608;49.300;6.846;2022-08-25T17:17:42;25.60;47.90
35495;DHT22;21608;49.300;6.846;2022-08-25T17:20:45;25.60;47.80
35495;DHT22;21608;49.300;6.846;2022-08-25T17:23:53;25.60;47.90
35495;DHT22;21608;49.300;6.846;2022-08-25T17:26:55;25.60;48.00
35495;DHT22;21608;49.300;6.846;2022-08-25T17:29:58;25.60;48.00
35495;DHT22;21608;49.300;6.846;2022-08-25T17:33:00;25.60;48.10
35495;DHT22;21608;49.300;6.846;2022-08-25T17:36:02;25.60;48.10
35495;DHT22;21608;49.300;6.846;2022-08-25T17:39:06;25.60;48.10
35495;DHT22;21608;49.300;6.846;2022-08-25T17:42:09;25.60;48.10
35495;DHT22;21608;49.300;6.846;2022-08-25T17:45:11;25.60;48.10
35495;DHT22;21608;49.300;6.846;2022-08-25T17:48:13;25.60;48.10
35495;DHT22;21608;49.300;6.846;2022-08-25T17:51:15;25.60;48.00
35495;DHT22;21608;49.300;6.846;2022-08-25T17:54:17;25.60;48.00
35495;DHT22;21608;49.300;6.846;2022-08-25T17:57:19;25.60;48.00
35495;DHT22;21608;49.300;6.846;2022-08-25T18:00:22;25.60;48.00
35495;DHT22;21608;49.300;6.846;2022-08-25T18:03:25;25.60;48.00
35495;DHT22;21608;49.300;6.846;2022-08-25T18:06:28;25.70;48.10
35495;DHT22;21608;49.300;6.846;2022-08-25T18:09:31;25.60;48.00
35495;DHT22;21608;49.300;6.846;2022-08-25T18:12:34;25.60;48.00
35495;DHT22;21608;49.300;6.846;2022-08-25T18:15:36;25.60;48.00
35495;DHT22;21608;49.300;6.846;2022-08-25T18:18:43;25.60;48.00
35495;DHT22;21608;49.300;6.846;2022-08-25T18:21:45;25.60;48.00
35495;DHT22;21608;49.300;6.846;2022-08-25T18:24:47;25.60;48.00
35495;DHT22;21608;49.300;6.846;2022-08-25T18:27:49;25.60;48.10
35495;DHT22;21608;49.300;6.846;2022-08-25T18:30:51;25.60;48.00
35495;DHT22;21608;49.300;6.846;2022-08-25T18:33:53;25.60;48.00
35495;DHT22;21608;49.300;6.846;2022-08-25T18:36:55;25.70;48.00
35495;DHT22;21608;49.300;6.846;2022-08-25T18:39:57;25.70;48.00
35495;DHT22;21608;49.300;6.846;2022-08-25T18:43:17;25.60;48.00
35495;DHT22;21608;49.300;6.846;2022-08-25T18:46:19;25.60;48.00
35495;DHT22;21608;49.300;6.846;2022-08-25T18:49:23;25.70;48.10
35495;DHT22;21608;49.300;6.846;2022-08-25T18:52:29;25.70;48.10
35495;DHT22;21608;49.300;6.846;2022-08-25T18:55:31;25.60;48.00
35495;DHT22;21608;49.300;6.846;2022-08-25T18:58:33;25.60;48.00
35495;DHT22;21608;49.300;6.846;2022-08-25T19:01:36;25.60;48.00
35495;DHT22;21608;49.300;6.846;2022-08-25T19:04:39;25.60;48.10
35495;DHT22;21608;49.300;6.846;2022-08-25T19:07:42;25.60;48.10
35495;DHT22;21608;49.300;6.846;2022-08-25T19:10:46;25.60;48.10
35495;DHT22;21608;49.300;6.846;2022-08-25T19:13:49;25.60;48.10
35495;DHT22;21608;49.300;6.846;2022-08-25T19:16:51;25.60;48.10
35495;DHT22;21608;49.300;6.846;2022-08-25T19:19:54;25.60;48.10
35495;DHT22;21608;49.300;6.846;2022-08-25T19:22:57;25.50;48.10
35495;DHT22;21608;49.300;6.846;2022-08-25T19:25:58;25.50;48.10
35495;DHT22;21608;49.300;6.846;2022-08-25T19:29:03;25.50;48.00
35495;DHT22;21608;49.300;6.846;2022-08-25T19:32:10;25.50;48.00
35495;DHT22;21608;49.300;6.846;2022-08-25T19:35:25;25.50;47.90
35495;DHT22;21608;49.300;6.846;2022-08-25T19:38:32;25.50;47.90
35495;DHT22;21608;49.300;6.846;2022-08-25T19:41:36;25.50;47.80
35495;DHT22;21608;49.300;6.846;2022-08-25T19:44:39;25.50;47.80
35495;DHT22;21608;49.300;6.846;2022-08-25T19:47:42;25.50;47.80
35495;DHT22;21608;49.300;6.846;2022-08-25T19:50:44;25.50;47.80
35495;DHT22;21608;49.300;6.846;2022-08-25T19:53:46;25.60;47.80
35495;DHT22;21608;49.300;6.846;2022-08-25T19:56:56;25.60;47.80
35495;DHT22;21608;49.300;6.846;2022-08-25T19:59:59;25.60;47.80
35495;DHT22;21608;49.300;6.846;2022-08-25T20:03:02;25.60;47.80
35495;DHT22;21608;49.300;6.846;2022-08-25T20:06:04;25.60;47.90
35495;DHT22;21608;49.300;6.846;2022-08-25T20:09:07;25.60;47.90
35495;DHT22;21608;49.300;6.846;2022-08-25T20:12:29;25.60;47.90
35495;DHT22;21608;49.300;6.846;2022-08-25T20:15:31;25.60;47.90
35495;DHT22;21608;49.300;6.846;2022-08-25T20:18:38;25.60;47.90
35495;DHT22;21608;49.300;6.846;2022-08-25T20:21:40;25.60;47.90
35495;DHT22;21608;49.300;6.846;2022-08-25T20:24:44;25.60;47.90
35495;DHT22;21608;49.300;6.846;2022-08-25T20:27:58;25.60;47.90
35495;DHT22;21608;49.300;6.846;2022-08-25T20:31:00;25.60;47.90
35495;DHT22;21608;49.300;6.846;2022-08-25T20:34:02;25.60;48.50
35495;DHT22;21608;49.300;6.846;2022-08-25T20:37:05;25.60;47.90
35495;DHT22;21608;49.300;6.846;2022-08-25T20:40:08;25.70;47.90
35495;DHT22;21608;49.300;6.846;2022-08-25T20:43:10;25.70;47.90
35495;DHT22;21608;49.300;6.846;2022-08-25T20:46:13;25.70;48.00
35495;DHT22;21608;49.300;6.846;2022-08-25T20:49:15;25.70;48.00
35495;DHT22;21608;49.300;6.846;2022-08-25T20:52:18;25.60;47.90
35495;DHT22;21608;49.300;6.846;2022-08-25T20:55:20;25.60;47.90
35495;DHT22;21608;49.300;6.846;2022-08-25T20:58:22;25.70;48.00
35495;DHT22;21608;49.300;6.846;2022-08-25T21:01:27;25.70;48.00
35495;DHT22;21608;49.300;6.846;2022-08-25T21:04:39;25.60;47.90
35495;DHT22;21608;49.300;6.846;2022-08-25T21:07:50;25.60;48.00
35495;DHT22;21608;49.300;6.846;2022-08-25T21:10:52;25.60;48.00